createdAt,value
2022-12-19T00:00:11.233Z,8.93
2022-12-19T00:03:00.440Z,8.68
2022-12-19T00:05:44.580Z,8.73
2022-12-19T00:08:27.240Z,8.98
2022-12-19T00:11:11.228Z,8.95
2022-12-19T00:13:53.850Z,8.25
2022-12-19T00:16:36.484Z,8.15
2022-12-19T00:19:19.433Z,8.85
2022-12-19T00:22:07.078Z,9.00
2022-12-19T00:24:52.283Z,8.38
2022-12-19T00:27:35.313Z,8.63
2022-12-19T00:30:17.996Z,8.30
2022-12-19T00:33:00.739Z,8.35
2022-12-19T00:35:43.304Z,9.05
2022-12-19T00:38:28.304Z,8.23
2022-12-19T00:41:11.797Z,8.55
2022-12-19T00:43:54.866Z,8.57
2022-12-19T00:46:37.597Z,8.65
2022-12-19T00:49:20.222Z,9.07
2022-12-19T00:52:02.813Z,9.07
2022-12-19T00:54:47.616Z,8.38
2022-12-19T00:57:30.316Z,8.40
2022-12-19T01:00:13.592Z,7.78
2022-12-19T01:02:56.285Z,8.57
2022-12-19T01:05:38.923Z,8.25
2022-12-19T01:08:24.631Z,8.55
2022-12-19T01:11:10.411Z,8.57
2022-12-19T01:13:51.991Z,8.43
2022-12-19T01:16:34.569Z,8.35
2022-12-19T01:19:17.198Z,8.63
2022-12-19T01:21:59.739Z,8.25
2022-12-19T01:24:42.622Z,8.15
2022-12-19T01:27:26.534Z,8.13
2022-12-19T01:30:09.748Z,8.40
2022-12-19T01:32:54.222Z,8.90
2022-12-19T01:35:37.182Z,8.30
2022-12-19T01:38:20.777Z,8.40
2022-12-19T01:41:03.470Z,7.75
2022-12-19T01:43:57.420Z,8.25
2022-12-19T01:46:42.069Z,8.05
2022-12-19T01:49:28.091Z,8.55
2022-12-19T01:52:12.898Z,8.27
2022-12-19T01:55:07.109Z,8.63
2022-12-19T01:57:49.654Z,8.40
2022-12-19T02:00:33.614Z,8.60
2022-12-19T02:03:18.481Z,8.43
2022-12-19T02:06:01.616Z,7.93
2022-12-19T02:08:45.511Z,7.90
2022-12-19T02:11:28.139Z,7.95
2022-12-19T02:14:10.802Z,8.60
2022-12-19T02:16:56.887Z,8.43
2022-12-19T02:20:00.434Z,8.45
2022-12-19T02:22:49.421Z,8.77
2022-12-19T02:25:47.619Z,8.32
2022-12-19T02:28:49.452Z,7.97
2022-12-19T02:31:35.604Z,8.15
2022-12-19T02:34:23.018Z,8.18
2022-12-19T02:37:19.419Z,7.75
2022-12-19T02:40:04.383Z,8.38
2022-12-19T02:42:49.431Z,7.88
2022-12-19T02:45:34.748Z,7.68
2022-12-19T02:48:19.704Z,8.25
2022-12-19T02:51:03.044Z,8.57
2022-12-19T02:53:47.903Z,8.00
2022-12-19T02:56:39.024Z,7.80
2022-12-19T02:59:29.569Z,7.28
2022-12-19T03:02:18.410Z,7.15
2022-12-19T03:05:05.761Z,7.43
2022-12-19T03:07:51.384Z,8.55
2022-12-19T03:10:36.929Z,7.80
2022-12-19T03:13:20.727Z,7.90
2022-12-19T03:16:05.638Z,8.95
2022-12-19T03:18:48.252Z,8.48
2022-12-19T03:21:35.019Z,8.00
2022-12-19T03:24:18.719Z,8.23
2022-12-19T03:27:03.226Z,8.00
2022-12-19T03:29:47.912Z,7.75
2022-12-19T03:32:32.240Z,7.70
2022-12-19T03:35:16.815Z,8.23
2022-12-19T03:38:02.856Z,8.02
2022-12-19T03:40:46.246Z,8.20
2022-12-19T03:43:28.304Z,7.22
2022-12-19T03:46:14.071Z,7.97
2022-12-19T03:48:57.268Z,7.55
2022-12-19T03:51:43.609Z,7.38
2022-12-19T03:54:28.757Z,8.18
2022-12-19T03:57:13.556Z,7.45
2022-12-19T03:59:58.009Z,7.32
2022-12-19T04:02:42.237Z,8.30
2022-12-19T04:05:26.197Z,7.97
2022-12-19T04:08:09.200Z,7.45
2022-12-19T04:10:55.423Z,7.22
2022-12-19T04:13:39.763Z,6.95
2022-12-19T04:16:26.263Z,7.45
2022-12-19T04:19:11.581Z,6.97
2022-12-19T04:21:56.852Z,7.40
2022-12-19T04:24:41.623Z,6.95
2022-12-19T04:27:25.890Z,7.22
2022-12-19T04:30:09.194Z,7.82
2022-12-19T04:32:52.164Z,7.70
2022-12-19T04:35:35.186Z,7.22
2022-12-19T04:38:25.348Z,8.00
2022-12-19T04:41:08.150Z,7.43
2022-12-19T04:43:52.283Z,7.13
2022-12-19T04:46:35.047Z,7.05
2022-12-19T04:49:17.672Z,7.38
2022-12-19T04:52:00.227Z,7.45
2022-12-19T04:54:42.993Z,7.55
2022-12-19T04:57:25.603Z,6.88
2022-12-19T05:00:11.182Z,6.47
2022-12-19T05:02:53.836Z,7.45
2022-12-19T05:05:36.563Z,6.80
2022-12-19T05:08:19.159Z,6.82
2022-12-19T05:11:02.007Z,6.75
2022-12-19T05:13:44.627Z,7.35
2022-12-19T05:16:28.749Z,7.15
2022-12-19T05:19:11.660Z,7.47
2022-12-19T05:21:54.472Z,6.88
2022-12-19T05:24:37.128Z,7.13
2022-12-19T05:27:19.793Z,7.22
2022-12-19T05:30:02.406Z,7.53
2022-12-19T05:32:46.416Z,7.15
2022-12-19T05:35:29.009Z,7.10
2022-12-19T05:38:11.637Z,7.35
2022-12-19T05:40:54.209Z,6.72
2022-12-19T05:43:37.014Z,7.50
2022-12-19T05:46:20.068Z,7.22
2022-12-19T05:49:04.060Z,6.13
2022-12-19T05:51:48.267Z,6.60
2022-12-19T05:54:30.936Z,7.05
2022-12-19T05:57:13.906Z,6.75
2022-12-19T05:59:56.508Z,6.55
2022-12-19T06:02:39.221Z,7.10
2022-12-19T06:05:23.178Z,6.70
2022-12-19T06:08:06.180Z,6.68
2022-12-19T06:10:49.316Z,6.90
2022-12-19T06:13:32.107Z,6.47
2022-12-19T06:16:15.952Z,6.45
2022-12-19T06:18:58.670Z,6.78
2022-12-19T06:21:48.203Z,6.57
2022-12-19T06:24:31.233Z,7.00
2022-12-19T06:27:14.265Z,6.63
2022-12-19T06:29:56.820Z,6.63
2022-12-19T06:32:39.451Z,6.75
2022-12-19T06:35:22.088Z,6.70
2022-12-19T06:38:06.103Z,6.15
2022-12-19T06:41:06.103Z,6.60
2022-12-19T06:43:53.313Z,6.97
2022-12-19T06:46:36.464Z,7.22
2022-12-19T06:49:19.029Z,6.47
2022-12-19T06:52:06.289Z,6.65
2022-12-19T06:54:52.918Z,6.63
2022-12-19T06:57:35.535Z,6.28
2022-12-19T07:00:18.414Z,6.32
2022-12-19T07:03:01.414Z,6.88
2022-12-19T07:05:44.012Z,6.68
2022-12-19T07:08:26.612Z,6.88
2022-12-19T07:11:10.695Z,6.68
2022-12-19T07:13:53.246Z,6.72
2022-12-19T07:16:36.020Z,6.28
2022-12-19T07:19:18.983Z,6.53
2022-12-19T07:22:02.177Z,6.70
2022-12-19T07:24:44.775Z,6.10
2022-12-19T07:27:35.384Z,6.40
2022-12-19T07:30:18.388Z,6.65
2022-12-19T07:33:01.028Z,6.32
2022-12-19T07:35:43.592Z,6.43
2022-12-19T07:38:26.269Z,6.40
2022-12-19T07:41:08.891Z,6.63
2022-12-19T07:43:52.860Z,6.18
2022-12-19T07:46:35.773Z,6.25
2022-12-19T07:49:22.670Z,6.32
2022-12-19T07:52:05.673Z,6.28
2022-12-19T07:54:48.315Z,6.07
2022-12-19T07:57:30.936Z,6.45
2022-12-19T08:00:15.425Z,6.35
2022-12-19T08:02:59.483Z,5.80
2022-12-19T08:05:42.322Z,6.15
2022-12-19T08:08:24.981Z,6.75
2022-12-19T08:11:08.613Z,6.28
2022-12-19T08:13:51.333Z,6.57
2022-12-19T08:16:55.531Z,6.78
2022-12-19T08:19:39.117Z,6.55
2022-12-19T08:22:21.929Z,6.93
2022-12-19T08:25:05.716Z,5.47
2022-12-19T08:27:48.388Z,5.50
2022-12-19T08:30:31.295Z,6.30
2022-12-19T08:33:15.376Z,6.68
2022-12-19T08:35:58.028Z,6.15
2022-12-19T08:38:40.852Z,6.35
2022-12-19T08:41:23.520Z,6.22
2022-12-19T08:44:06.288Z,6.53
2022-12-19T08:46:50.426Z,6.55
2022-12-19T08:49:34.693Z,6.07
2022-12-19T08:52:18.033Z,6.30
2022-12-19T08:55:00.825Z,5.93
2022-12-19T08:57:43.484Z,5.60
2022-12-19T09:00:26.123Z,6.70
2022-12-19T09:03:10.225Z,6.32
2022-12-19T09:06:07.077Z,6.13
2022-12-19T09:08:53.598Z,6.20
2022-12-19T09:11:46.713Z,5.75
2022-12-19T09:14:33.615Z,6.03
2022-12-19T09:17:16.530Z,6.32
2022-12-19T09:19:59.214Z,6.10
2022-12-19T09:22:43.224Z,6.30
2022-12-19T09:25:25.949Z,6.30
2022-12-19T09:31:12.556Z,6.65
2022-12-19T09:33:55.353Z,5.82
2022-12-19T09:36:38.014Z,6.15
2022-12-19T09:39:22.044Z,6.63
2022-12-19T09:42:40.666Z,6.13
2022-12-19T09:45:31.534Z,6.40
2022-12-19T09:48:24.197Z,6.15
2022-12-19T09:51:11.209Z,6.10
2022-12-19T09:53:58.676Z,6.53
2022-12-19T09:56:46.333Z,6.47
2022-12-19T09:59:41.327Z,6.45
2022-12-19T10:02:33.240Z,5.70
2022-12-19T10:05:28.733Z,5.93
2022-12-19T10:08:25.510Z,5.90
2022-12-19T10:12:42.763Z,6.57
2022-12-19T10:14:23.639Z,6.22
2022-12-19T10:17:24.048Z,5.80
2022-12-19T10:20:16.171Z,6.25
2022-12-19T10:23:06.104Z,6.13
2022-12-19T10:25:52.497Z,5.35
2022-12-19T10:28:48.978Z,5.13
2022-12-19T10:31:36.750Z,5.60
2022-12-19T10:34:21.029Z,5.40
2022-12-19T10:37:24.412Z,5.32
2022-12-19T10:40:18.731Z,5.28
2022-12-19T10:43:19.123Z,4.55
2022-12-19T10:46:12.509Z,4.65
2022-12-19T10:48:56.716Z,5.15
2022-12-19T10:51:39.425Z,5.28
2022-12-19T10:54:27.599Z,4.78
2022-12-19T10:57:20.716Z,5.43
2022-12-19T11:00:05.574Z,5.40
2022-12-19T11:02:50.292Z,5.00
2022-12-19T11:05:43.020Z,5.07
2022-12-19T11:08:26.659Z,4.95
2022-12-19T11:12:32.319Z,5.05
2022-12-19T11:19:28.772Z,5.03
2022-12-19T11:27:14.285Z,5.25
2022-12-19T11:29:27.069Z,5.40
2022-12-19T11:29:31.405Z,5.25
2022-12-19T11:30:46.256Z,5.43
2022-12-19T11:32:50.914Z,5.45
2022-12-19T11:35:37.013Z,5.63
2022-12-19T11:38:23.291Z,5.18
2022-12-19T11:41:12.326Z,5.50
2022-12-19T11:43:58.828Z,4.90
2022-12-19T11:46:46.119Z,5.03
2022-12-19T11:49:31.273Z,4.70
2022-12-19T11:52:54.080Z,4.55
2022-12-19T11:55:24.331Z,4.43
2022-12-19T11:58:09.890Z,4.32
2022-12-19T12:00:55.281Z,4.78
2022-12-19T12:04:01.994Z,4.60
2022-12-19T12:06:48.745Z,4.50
2022-12-19T12:13:13.614Z,4.30
2022-12-19T12:21:02.813Z,4.53
2022-12-19T12:31:10.768Z,4.30
2022-12-19T12:31:16.333Z,4.30
2022-12-19T12:31:25.829Z,4.43
2022-12-19T12:31:40.352Z,4.57
2022-12-19T12:31:56.860Z,4.55
2022-12-19T12:35:54.022Z,4.32
2022-12-19T12:37:05.219Z,4.32
2022-12-19T12:38:24.597Z,4.85
2022-12-19T12:41:18.567Z,4.40
2022-12-19T12:44:06.041Z,4.47
2022-12-19T12:46:49.876Z,4.30
2022-12-19T12:49:39.095Z,4.78
2022-12-19T12:52:24.834Z,5.03
2022-12-19T12:55:16.504Z,4.88
2022-12-19T12:57:59.571Z,4.85
2022-12-19T13:01:02.384Z,4.78
2022-12-19T13:03:52.368Z,4.68
2022-12-19T13:06:37.268Z,5.10
2022-12-19T13:09:22.931Z,4.85
2022-12-19T13:12:32.668Z,4.97
2022-12-19T13:15:32.051Z,4.82
2022-12-19T13:18:37.627Z,4.53
2022-12-19T13:21:20.433Z,4.75
2022-12-19T13:24:22.363Z,4.45
2022-12-19T13:27:05.037Z,5.07
2022-12-19T13:29:55.565Z,5.00
2022-12-19T13:33:05.302Z,4.80
2022-12-19T13:36:33.308Z,4.75
2022-12-19T13:40:02.472Z,5.20
2022-12-19T13:42:18.157Z,5.30
2022-12-19T13:45:02.847Z,4.97
2022-12-19T13:47:46.315Z,5.13
2022-12-19T13:50:30.903Z,4.40
2022-12-19T13:53:15.973Z,5.40
2022-12-19T13:56:00.616Z,5.22
2022-12-19T13:58:48.133Z,5.10
2022-12-19T14:01:32.762Z,5.20
2022-12-19T14:04:24.289Z,5.22
2022-12-19T14:07:07.753Z,5.18
2022-12-19T14:11:33.100Z,4.85
2022-12-19T14:13:44.560Z,5.20
2022-12-19T14:16:18.546Z,5.10
2022-12-19T14:19:01.287Z,5.20
2022-12-19T14:22:10.548Z,4.93
2022-12-19T14:24:54.481Z,5.53
2022-12-19T14:28:21.385Z,5.03
2022-12-19T14:30:42.506Z,5.03
2022-12-19T14:33:46.719Z,4.75
2022-12-19T14:36:37.674Z,5.32
2022-12-19T14:39:28.955Z,5.45
2022-12-19T14:43:57.493Z,5.15
2022-12-19T14:51:51.542Z,4.80
2022-12-19T14:54:10.512Z,5.68
2022-12-19T14:54:34.715Z,5.53
2022-12-19T14:56:11.276Z,5.38
2022-12-19T14:58:52.136Z,5.13
2022-12-19T15:01:23.499Z,5.10
2022-12-19T15:04:48.664Z,5.55
2022-12-19T15:07:15.860Z,5.47
2022-12-19T15:11:04.922Z,5.65
2022-12-19T15:14:56.430Z,5.28
2022-12-19T15:16:27.775Z,5.75
2022-12-19T15:19:14.354Z,5.50
2022-12-19T15:21:57.074Z,5.93
2022-12-19T15:24:39.655Z,5.63
2022-12-19T15:27:22.881Z,6.20
2022-12-19T15:30:13.010Z,6.05
2022-12-19T15:32:55.742Z,5.82
2022-12-19T15:35:40.256Z,6.43
2022-12-19T15:38:22.857Z,6.10
2022-12-19T15:41:12.205Z,6.28
2022-12-19T15:44:05.319Z,5.90
2022-12-19T15:46:49.678Z,5.30
2022-12-19T15:49:34.968Z,5.63
2022-12-19T15:52:19.672Z,5.68
2022-12-19T15:55:02.282Z,5.85
2022-12-19T15:57:46.202Z,5.20
2022-12-19T16:00:30.024Z,5.70
2022-12-19T16:03:23.513Z,5.75
2022-12-19T16:06:11.600Z,5.68
2022-12-19T16:08:55.879Z,5.45
2022-12-19T16:11:38.605Z,5.55
2022-12-19T16:14:21.703Z,5.50
2022-12-19T16:17:04.397Z,5.47
2022-12-19T16:19:47.050Z,5.55
2022-12-19T16:22:30.555Z,6.35
2022-12-19T16:25:14.773Z,6.05
2022-12-19T16:27:59.412Z,6.25
2022-12-19T16:30:44.350Z,5.97
2022-12-19T16:33:28.953Z,5.70
2022-12-19T16:36:11.612Z,5.88
2022-12-19T16:38:54.363Z,5.43
2022-12-19T16:41:41.690Z,5.22
2022-12-19T16:44:26.825Z,5.97
2022-12-19T16:47:12.178Z,5.70
2022-12-19T16:49:54.925Z,5.90
2022-12-19T16:52:42.567Z,6.15
2022-12-19T16:55:26.558Z,5.53
2022-12-19T16:58:14.271Z,5.95
2022-12-19T17:00:57.268Z,5.82
2022-12-19T17:03:41.370Z,5.60
2022-12-19T17:06:24.937Z,5.90
2022-12-19T17:09:07.749Z,6.00
2022-12-19T17:11:52.004Z,5.85
2022-12-19T17:14:36.033Z,5.85
2022-12-19T17:17:18.705Z,5.95
2022-12-19T17:20:01.371Z,5.40
2022-12-19T17:22:44.312Z,5.82
2022-12-19T17:25:28.013Z,5.78
2022-12-19T17:28:10.863Z,5.25
2022-12-19T17:30:57.411Z,5.78
2022-12-19T17:33:41.386Z,5.30
2022-12-19T17:36:31.173Z,5.63
2022-12-19T17:39:19.486Z,5.55
2022-12-19T17:42:03.311Z,5.38
2022-12-19T17:44:45.995Z,5.68
2022-12-19T17:47:30.224Z,4.80
2022-12-19T17:50:20.367Z,5.18
2022-12-19T17:53:03.032Z,5.18
2022-12-19T17:55:46.079Z,4.80
2022-12-19T17:58:29.846Z,5.72
2022-12-19T18:01:19.598Z,4.97
2022-12-19T18:04:03.998Z,4.63
2022-12-19T18:06:47.007Z,5.03
2022-12-19T18:09:29.698Z,4.88
2022-12-19T18:12:12.463Z,5.18
2022-12-19T18:14:55.134Z,4.82
2022-12-19T18:17:38.862Z,4.80
2022-12-19T18:20:31.213Z,5.00
2022-12-19T18:23:17.093Z,4.57
2022-12-19T18:26:02.227Z,5.43
2022-12-19T18:28:45.645Z,5.32
2022-12-19T18:31:28.386Z,5.40
2022-12-19T18:34:14.349Z,5.07
2022-12-19T18:36:58.404Z,4.90
2022-12-19T18:39:41.106Z,4.90
2022-12-19T18:42:23.754Z,5.55
2022-12-19T18:45:07.004Z,4.95
2022-12-19T18:47:52.653Z,5.03
2022-12-19T18:50:36.802Z,5.43
2022-12-19T18:53:23.148Z,5.07
2022-12-19T18:56:07.566Z,5.35
2022-12-19T18:58:50.638Z,4.97
2022-12-19T19:01:33.384Z,4.93
2022-12-19T19:04:18.245Z,5.20
2022-12-19T19:07:01.254Z,4.80
2022-12-19T19:09:45.305Z,5.45
2022-12-19T19:12:54.143Z,4.85
2022-12-19T19:15:38.834Z,5.15
2022-12-19T19:18:23.747Z,4.75
2022-12-19T19:21:07.110Z,4.78
2022-12-19T19:27:07.569Z,5.07
2022-12-19T19:29:50.386Z,4.85
2022-12-19T19:32:33.575Z,4.93
2022-12-19T19:35:18.609Z,4.50
2022-12-19T19:38:02.453Z,5.10
2022-12-19T19:40:45.181Z,5.13
2022-12-19T19:46:32.444Z,5.45
2022-12-19T19:49:15.672Z,5.30
2022-12-19T19:52:02.590Z,5.22
2022-12-19T19:54:46.166Z,5.50
2022-12-19T19:57:28.942Z,4.95
2022-12-19T20:00:12.081Z,4.93
2022-12-19T20:03:02.115Z,4.95
2022-12-19T20:05:50.130Z,5.35
2022-12-19T20:08:39.186Z,5.03
2022-12-19T20:11:22.967Z,5.55
2022-12-19T20:14:05.661Z,4.70
2022-12-19T20:16:48.611Z,4.90
2022-12-19T20:19:32.701Z,4.82
2022-12-19T20:22:15.494Z,5.05
2022-12-19T20:24:58.486Z,5.35
2022-12-19T20:27:41.690Z,4.63
2022-12-19T20:30:24.932Z,5.15
2022-12-19T20:33:07.782Z,5.28
2022-12-19T20:35:51.903Z,4.70
2022-12-19T20:38:34.644Z,4.90
2022-12-19T20:41:17.641Z,4.93
2022-12-19T20:44:00.495Z,5.10
2022-12-19T20:46:43.256Z,4.63
2022-12-19T20:49:26.005Z,5.20
2022-12-19T20:52:10.069Z,5.00
2022-12-19T20:54:53.429Z,4.45
2022-12-19T20:57:36.599Z,4.80
2022-12-19T21:00:20.345Z,5.00
2022-12-19T21:06:06.609Z,4.22
2022-12-19T21:08:50.994Z,4.72
2022-12-19T21:11:35.701Z,4.57
2022-12-19T21:14:18.782Z,4.65
2022-12-19T21:17:01.546Z,4.45
2022-12-19T21:19:44.677Z,4.93
2022-12-19T21:22:27.417Z,4.30
2022-12-19T21:25:11.489Z,3.95
2022-12-19T21:27:54.413Z,4.93
2022-12-19T21:30:37.686Z,4.45
2022-12-19T21:33:20.263Z,4.40
2022-12-19T21:36:06.793Z,4.68
2022-12-19T21:38:50.647Z,4.43
2022-12-19T21:41:35.297Z,4.32
2022-12-19T21:44:18.173Z,4.65
2022-12-19T21:47:00.934Z,4.43
2022-12-19T21:49:43.787Z,4.47
2022-12-19T21:52:26.524Z,4.53
2022-12-19T21:55:10.084Z,4.70
2022-12-19T21:57:54.270Z,3.95
2022-12-19T22:00:37.083Z,4.50
2022-12-19T22:03:19.850Z,4.70
2022-12-19T22:06:02.590Z,4.22
2022-12-19T22:08:45.346Z,4.70
2022-12-19T22:11:28.758Z,4.20
2022-12-19T22:14:13.380Z,4.38
2022-12-19T22:16:56.123Z,4.60
2022-12-19T22:19:38.988Z,4.57
2022-12-19T22:22:21.673Z,4.60
2022-12-19T22:25:04.336Z,4.43
2022-12-19T22:27:47.191Z,4.45
2022-12-19T22:30:33.610Z,4.20
2022-12-19T22:33:16.342Z,4.50
2022-12-19T22:35:59.049Z,5.03
2022-12-19T22:38:41.999Z,4.88
2022-12-19T22:41:24.969Z,4.65
2022-12-19T22:44:07.967Z,4.63
2022-12-19T22:46:52.439Z,3.90
2022-12-19T22:49:35.180Z,3.90
2022-12-19T22:52:17.841Z,4.50
2022-12-19T22:55:00.488Z,4.68
2022-12-19T22:57:43.190Z,4.68
2022-12-19T23:00:25.894Z,4.68
2022-12-19T23:03:10.113Z,4.32
2022-12-19T23:05:52.943Z,4.60
2022-12-19T23:08:36.007Z,4.63
2022-12-19T23:11:19.499Z,4.15
2022-12-19T23:14:02.560Z,4.70
2022-12-19T23:16:45.677Z,4.63
2022-12-19T23:19:29.795Z,5.15
2022-12-19T23:22:12.542Z,4.70
2022-12-19T23:24:55.197Z,4.43
2022-12-19T23:27:37.909Z,4.50
2022-12-19T23:30:20.510Z,3.85
2022-12-19T23:33:03.234Z,4.38
2022-12-19T23:35:47.174Z,4.80
2022-12-19T23:38:30.081Z,3.90
2022-12-19T23:41:13.999Z,4.10
2022-12-19T23:43:56.740Z,4.03
2022-12-19T23:46:40.000Z,4.40
2022-12-19T23:49:22.647Z,3.85
2022-12-19T23:52:06.856Z,4.38
2022-12-19T23:54:49.688Z,3.85
2022-12-19T23:57:32.366Z,4.03
